Time;durP1;ratioP1;P1;durP2;ratioP2;P2;SDS_P1;SDS_P2;PMS_P1;PMS_P2;Temp;Humidity;BMP_temperature;BMP_pressure;BME280_temperature;BME280_humidity;BME280_pressure;Samples;Min_cycle;Max_cycle;Signal;HPM_P1;HPM_P2
2023/12/07 00:00:34;;;;;;;0.80;0.80;;;8.40;69.80;;;;;;4997234;28;20084;-71
2023/12/07 00:02:59;;;;;;;0.88;0.85;;;8.30;69.80;;;;;;4986671;28;20030;-71
2023/12/07 00:05:25;;;;;;;1.65;1.55;;;8.30;69.90;;;;;;5011290;28;20421;-71
2023/12/07 00:07:50;;;;;;;0.50;0.50;;;8.30;69.90;;;;;;5008954;28;20409;-72
2023/12/07 00:10:16;;;;;;;0.75;0.75;;;8.30;69.90;;;;;;5010527;28;20026;-71
2023/12/07 00:12:41;;;;;;;0.95;0.95;;;8.30;69.90;;;;;;5009782;28;20030;-71
2023/12/07 00:15:07;;;;;;;0.50;0.50;;;8.30;69.90;;;;;;4999643;28;20042;-71
2023/12/07 00:17:33;;;;;;;0.63;0.63;;;8.30;69.90;;;;;;5000610;28;20112;-71
2023/12/07 00:19:58;;;;;;;0.43;0.43;;;8.30;69.90;;;;;;4995275;28;20030;-71
2023/12/07 00:22:25;;;;;;;1.85;1.08;;;8.30;69.80;;;;;;4977896;28;20054;-71
2023/12/07 00:24:51;;;;;;;1.05;1.05;;;8.30;69.80;;;;;;4995199;28;20019;-72
2023/12/07 00:27:16;;;;;;;1.85;1.25;;;8.40;69.80;;;;;;4994280;28;20101;-71
2023/12/07 00:29:42;;;;;;;1.08;1.08;;;8.30;69.80;;;;;;4995115;28;20069;-71
2023/12/07 00:32:07;;;;;;;0.70;0.70;;;8.30;69.80;;;;;;4995222;28;20041;-71
2023/12/07 00:34:33;;;;;;;0.50;0.50;;;8.30;69.90;;;;;;4977223;28;20478;-71
2023/12/07 00:36:58;;;;;;;2.05;1.40;;;8.30;69.80;;;;;;4994955;28;20041;-71
2023/12/07 00:39:23;;;;;;;0.60;0.60;;;8.40;69.70;;;;;;4999048;28;20366;-71
2023/12/07 00:41:49;;;;;;;0.40;0.40;;;8.30;69.80;;;;;;5014444;28;20026;-71
2023/12/07 00:44:14;;;;;;;1.15;1.10;;;8.30;69.80;;;;;;5014421;28;20041;-71
2023/12/07 00:46:40;;;;;;;0.52;0.52;;;8.30;69.60;;;;;;5014443;28;20030;-71
2023/12/07 00:49:06;;;;;;;0.93;0.93;;;8.40;69.60;;;;;;5014675;28;20045;-71
2023/12/07 00:51:31;;;;;;;1.40;1.30;;;8.30;69.60;;;;;;5014312;28;20040;-71
2023/12/07 00:53:58;;;;;;;1.38;1.27;;;8.30;69.70;;;;;;5014831;28;20061;-71
2023/12/07 00:56:24;;;;;;;0.60;0.60;;;8.30;69.70;;;;;;5014354;28;20025;-71
2023/12/07 00:58:50;;;;;;;0.60;0.60;;;8.30;69.70;;;;;;4982893;28;20046;-71
2023/12/07 01:01:15;;;;;;;1.13;1.13;;;8.30;69.70;;;;;;4994567;28;20042;-71
2023/12/07 01:03:41;;;;;;;1.60;1.50;;;8.30;69.70;;;;;;5006133;28;20378;-71
2023/12/07 01:06:07;;;;;;;0.80;0.80;;;8.30;69.60;;;;;;4994222;28;20077;-71
2023/12/07 01:08:33;;;;;;;0.60;0.60;;;8.20;69.80;;;;;;4994748;28;20425;-71
2023/12/07 01:10:58;;;;;;;0.60;0.60;;;8.30;69.70;;;;;;4994652;28;20037;-70
2023/12/07 01:13:24;;;;;;;0.65;0.65;;;8.20;69.80;;;;;;4994096;28;20393;-71
2023/12/07 01:15:50;;;;;;;0.60;0.60;;;8.30;69.70;;;;;;4994569;28;20505;-70
2023/12/07 01:18:16;;;;;;;2.05;1.63;;;8.30;69.70;;;;;;4994703;28;20478;-71
2023/12/07 01:20:42;;;;;;;0.50;0.50;;;8.30;69.80;;;;;;5004488;28;20029;-71
2023/12/07 01:23:08;;;;;;;1.02;1.02;;;8.30;69.80;;;;;;4986091;28;20402;-72
2023/12/07 01:25:34;;;;;;;0.52;0.52;;;8.20;69.70;;;;;;4996277;28;20029;-70
2023/12/07 01:28:00;;;;;;;0.68;0.68;;;8.20;69.60;;;;;;5008094;28;20041;-70
2023/12/07 01:30:25;;;;;;;0.60;0.60;;;8.30;69.60;;;;;;4974517;28;20537;-71
2023/12/07 01:32:51;;;;;;;0.77;0.77;;;8.20;69.60;;;;;;4974748;28;20022;-70
2023/12/07 01:35:16;;;;;;;1.15;1.05;;;8.20;69.60;;;;;;4974580;28;20030;-71
2023/12/07 01:37:42;;;;;;;2.80;1.10;;;8.20;69.70;;;;;;4974595;28;20035;-71
2023/12/07 01:40:10;;;;;;;1.20;1.13;;;8.20;69.60;;;;;;4974291;28;20081;-72
2023/12/07 01:42:37;;;;;;;0.80;0.80;;;8.20;69.70;;;;;;4973372;28;20043;-72
2023/12/07 01:45:03;;;;;;;1.00;0.88;;;8.20;69.60;;;;;;4974643;28;20030;-71
2023/12/07 01:47:29;;;;;;;1.17;0.88;;;8.20;69.70;;;;;;4974256;28;20402;-71
2023/12/07 01:49:54;;;;;;;0.50;0.50;;;8.20;69.70;;;;;;4974219;28;20058;-71
2023/12/07 01:52:22;;;;;;;1.63;1.52;;;8.20;69.70;;;;;;4973140;28;20051;-72
2023/12/07 01:54:47;;;;;;;0.80;0.80;;;8.20;69.70;;;;;;4972874;28;20038;-71
2023/12/07 01:57:14;;;;;;;1.17;1.08;;;8.10;69.70;;;;;;4974136;28;20031;-71
2023/12/07 01:59:39;;;;;;;0.75;0.75;;;8.20;69.70;;;;;;4974357;28;20402;-71
2023/12/07 02:02:05;;;;;;;0.60;0.60;;;8.20;69.80;;;;;;4974090;28;20035;-72
2023/12/07 02:04:30;;;;;;;1.08;1.08;;;8.10;69.80;;;;;;4993467;28;20085;-71
2023/12/07 02:06:59;;;;;;;1.05;1.05;;;8.20;69.80;;;;;;4976036;28;20031;-72
2023/12/07 02:09:25;;;;;;;0.63;0.63;;;8.10;69.80;;;;;;4993433;28;20486;-71
2023/12/07 02:11:50;;;;;;;0.80;0.80;;;8.10;69.70;;;;;;4993372;28;20022;-73
2023/12/07 02:14:18;;;;;;;0.63;0.63;;;8.20;69.70;;;;;;4993270;28;20049;-71
2023/12/07 02:16:48;;;;;;;0.60;0.60;;;8.20;69.60;;;;;;4993253;28;20486;-71
2023/12/07 02:19:19;;;;;;;0.93;0.93;;;8.20;69.50;;;;;;4993248;28;20028;-72
2023/12/07 02:21:52;;;;;;;1.85;1.27;;;8.10;69.50;;;;;;4993210;28;20022;-72
2023/12/07 02:24:21;;;;;;;0.90;0.90;;;8.10;69.70;;;;;;4975510;28;20116;-72
2023/12/07 02:26:48;;;;;;;0.70;0.70;;;8.10;69.70;;;;;;4993985;28;20033;-74
2023/12/07 02:29:13;;;;;;;0.80;0.80;;;8.10;69.60;;;;;;5009996;28;20029;-75
2023/12/07 02:31:39;;;;;;;2.85;1.13;;;8.10;69.60;;;;;;5010322;28;20060;-75
2023/12/07 02:34:04;;;;;;;0.77;0.77;;;8.10;69.50;;;;;;5009968;28;20042;-74
2023/12/07 02:36:32;;;;;;;0.90;0.90;;;8.00;69.50;;;;;;5009419;28;20026;-75
2023/12/07 02:39:01;;;;;;;1.08;1.05;;;8.00;69.50;;;;;;5008194;28;20031;-74
2023/12/07 02:41:27;;;;;;;1.33;1.25;;;8.00;69.50;;;;;;5009947;28;20022;-74
2023/12/07 02:43:53;;;;;;;0.82;0.82;;;8.00;69.60;;;;;;5009671;28;20030;-75
2023/12/07 02:46:19;;;;;;;1.15;1.15;;;8.00;69.60;;;;;;5009309;28;20035;-74
2023/12/07 02:48:45;;;;;;;1.15;1.13;;;8.00;69.60;;;;;;5009194;28;20030;-74
2023/12/07 02:51:10;;;;;;;0.75;0.75;;;8.00;69.70;;;;;;5009238;28;20113;-74
2023/12/07 02:53:36;;;;;;;0.50;0.50;;;8.00;69.60;;;;;;5008673;28;20039;-74
2023/12/07 02:56:02;;;;;;;1.50;1.13;;;7.90;69.60;;;;;;5009127;28;20082;-74
2023/12/07 02:58:27;;;;;;;1.08;1.08;;;8.00;69.60;;;;;;5008932;28;20038;-75
2023/12/07 03:00:53;;;;;;;1.65;1.40;;;7.90;69.60;;;;;;5008657;28;20022;-74
2023/12/07 03:03:18;;;;;;;0.70;0.70;;;7.90;69.60;;;;;;5008524;28;20109;-74
2023/12/07 03:05:44;;;;;;;1.02;1.02;;;7.90;69.60;;;;;;4990934;28;20466;-75
2023/12/07 03:08:09;;;;;;;1.23;1.23;;;7.90;69.60;;;;;;5008421;28;20061;-74
2023/12/07 03:10:35;;;;;;;0.55;0.55;;;7.90;69.60;;;;;;5009182;28;20049;-74
2023/12/07 03:13:00;;;;;;;0.70;0.70;;;7.80;69.60;;;;;;4993458;28;20007;-74
2023/12/07 03:15:26;;;;;;;0.50;0.50;;;7.90;69.60;;;;;;5010575;28;20038;-72
2023/12/07 03:17:51;;;;;;;0.95;0.93;;;7.80;69.70;;;;;;5008345;28;20038;-72
2023/12/07 03:20:17;;;;;;;1.00;1.00;;;7.90;69.60;;;;;;4992058;28;20037;-72
2023/12/07 03:22:42;;;;;;;0.63;0.63;;;7.90;69.60;;;;;;5009569;28;20050;-73
2023/12/07 03:25:08;;;;;;;0.73;0.73;;;7.80;69.70;;;;;;5009491;28;20541;-72
2023/12/07 03:27:34;;;;;;;1.20;1.13;;;7.80;69.70;;;;;;5009278;28;20037;-72
2023/12/07 03:29:59;;;;;;;1.50;1.40;;;7.90;69.60;;;;;;5008266;28;20027;-73
2023/12/07 03:32:25;;;;;;;0.50;0.50;;;7.80;69.60;;;;;;5007675;28;20034;-72
2023/12/07 03:34:50;;;;;;;0.40;0.40;;;7.80;69.50;;;;;;5007527;28;20061;-73
2023/12/07 03:37:16;;;;;;;0.70;0.70;;;7.80;69.50;;;;;;5007869;28;20030;-73
2023/12/07 03:39:41;;;;;;;0.73;0.73;;;7.80;69.50;;;;;;5007521;28;20092;-75
2023/12/07 03:42:07;;;;;;;0.65;0.65;;;7.80;69.60;;;;;;5008301;28;20089;-72
2023/12/07 03:44:33;;;;;;;0.50;0.50;;;7.80;69.50;;;;;;4990770;28;20030;-73
2023/12/07 03:46:58;;;;;;;0.57;0.57;;;7.80;69.50;;;;;;5008135;28;20061;-73
2023/12/07 03:49:24;;;;;;;0.60;0.60;;;7.80;69.60;;;;;;5008354;28;20026;-72
2023/12/07 03:51:49;;;;;;;0.82;0.82;;;7.80;69.60;;;;;;5008020;28;20375;-73
2023/12/07 03:54:15;;;;;;;0.50;0.50;;;7.70;69.60;;;;;;5008094;28;20045;-72
2023/12/07 03:56:43;;;;;;;1.35;1.25;;;7.80;69.60;;;;;;5009396;28;20049;-73
2023/12/07 03:59:08;;;;;;;0.55;0.55;;;7.80;69.60;;;;;;5012162;28;20057;-73
2023/12/07 04:01:34;;;;;;;1.17;1.10;;;7.70;69.60;;;;;;5011800;28;20434;-72
2023/12/07 04:04:00;;;;;;;1.40;1.30;;;7.80;69.50;;;;;;5012433;28;20047;-73
2023/12/07 04:06:26;;;;;;;4.18;1.48;;;7.70;69.40;;;;;;5012513;28;20061;-73
2023/12/07 04:08:52;;;;;;;0.52;0.52;;;7.70;69.50;;;;;;4996144;28;20035;-73
2023/12/07 04:11:18;;;;;;;0.80;0.80;;;7.70;69.50;;;;;;5032479;28;20049;-73
2023/12/07 04:13:45;;;;;;;1.08;1.08;;;7.70;69.60;;;;;;5002267;28;20034;-72
2023/12/07 04:16:10;;;;;;;0.82;0.82;;;7.70;69.40;;;;;;5030964;28;20013;-73
2023/12/07 04:18:36;;;;;;;0.80;0.80;;;7.70;69.50;;;;;;5025336;28;20042;-74
2023/12/07 04:21:03;;;;;;;1.90;1.80;;;7.70;69.20;;;;;;5012715;28;20029;-73
2023/12/07 04:23:28;;;;;;;0.70;0.70;;;7.70;69.20;;;;;;5011927;28;20041;-73
2023/12/07 04:25:54;;;;;;;1.05;1.02;;;7.70;69.20;;;;;;5014574;28;20022;-73
2023/12/07 04:28:19;;;;;;;1.60;1.50;;;7.60;69.20;;;;;;5012741;28;20038;-72
2023/12/07 04:30:45;;;;;;;1.75;1.05;;;7.60;69.10;;;;;;5024369;28;20038;-72
2023/12/07 04:33:10;;;;;;;1.50;1.40;;;7.60;69.10;;;;;;5032599;28;20038;-73
2023/12/07 04:35:36;;;;;;;0.75;0.75;;;7.60;69.00;;;;;;5032930;28;20030;-73
2023/12/07 04:38:02;;;;;;;0.63;0.63;;;7.50;68.90;;;;;;5018779;28;20026;-73
2023/12/07 04:40:27;;;;;;;0.93;0.93;;;7.50;68.80;;;;;;5012595;28;20083;-72
2023/12/07 04:42:53;;;;;;;0.82;0.82;;;7.40;68.80;;;;;;5012957;28;20061;-72
2023/12/07 04:45:19;;;;;;;0.80;0.80;;;7.40;68.70;;;;;;5012369;28;20037;-73
2023/12/07 04:47:45;;;;;;;0.77;0.77;;;7.40;68.80;;;;;;5004511;28;20034;-69
2023/12/07 04:50:11;;;;;;;2.20;2.05;;;7.40;68.90;;;;;;4990994;28;20383;-69
2023/12/07 04:52:36;;;;;;;2.30;2.10;;;7.40;68.90;;;;;;4991008;28;20039;-71
2023/12/07 04:55:02;;;;;;;2.33;1.20;;;7.40;68.80;;;;;;4991256;28;20057;-69
2023/12/07 04:57:28;;;;;;;0.60;0.60;;;7.30;68.90;;;;;;4991193;28;20030;-69
2023/12/07 04:59:53;;;;;;;2.10;2.00;;;7.30;68.90;;;;;;4991074;28;20034;-69
2023/12/07 05:02:19;;;;;;;1.30;1.20;;;7.30;69.20;;;;;;4992323;28;20053;-69
2023/12/07 05:04:45;;;;;;;1.77;1.48;;;7.30;69.10;;;;;;4977341;28;20034;-70
2023/12/07 05:07:12;;;;;;;0.95;0.95;;;7.30;69.00;;;;;;4977199;28;20046;-69
2023/12/07 05:09:38;;;;;;;0.80;0.80;;;7.30;69.00;;;;;;4994964;28;20478;-70
2023/12/07 05:12:04;;;;;;;0.90;0.90;;;7.20;69.10;;;;;;4994490;28;20030;-70
2023/12/07 05:14:31;;;;;;;0.50;0.50;;;7.20;69.20;;;;;;4994361;28;20033;-70
2023/12/07 05:16:57;;;;;;;0.80;0.80;;;7.20;69.40;;;;;;4994412;28;20466;-70
2023/12/07 05:19:23;;;;;;;1.30;1.20;;;7.20;69.20;;;;;;4977172;28;20033;-70
2023/12/07 05:21:49;;;;;;;1.48;1.38;;;7.20;69.30;;;;;;4994554;28;20026;-70
2023/12/07 05:24:15;;;;;;;0.73;0.73;;;7.20;69.40;;;;;;4994411;28;20382;-70
2023/12/07 05:26:41;;;;;;;0.90;0.90;;;7.20;69.40;;;;;;4976776;28;20023;-70
2023/12/07 05:29:07;;;;;;;0.88;0.88;;;7.20;69.40;;;;;;4994188;28;20474;-70
2023/12/07 05:31:32;;;;;;;0.60;0.60;;;7.30;69.50;;;;;;4994155;28;20080;-70
2023/12/07 05:33:58;;;;;;;0.95;0.95;;;7.30;69.40;;;;;;4994560;28;20027;-70
2023/12/07 05:36:23;;;;;;;0.55;0.55;;;7.20;69.40;;;;;;4994449;28;20023;-70
2023/12/07 05:38:49;;;;;;;1.20;1.20;;;7.20;69.60;;;;;;4976667;28;20027;-70
2023/12/07 05:41:14;;;;;;;0.90;0.90;;;7.20;69.40;;;;;;4976705;28;20033;-70
2023/12/07 05:43:43;;;;;;;4.32;3.05;;;7.20;69.50;;;;;;4994177;28;20042;-70
2023/12/07 05:46:09;;;;;;;1.05;1.05;;;7.20;69.60;;;;;;4993952;28;20046;-70
2023/12/07 05:48:35;;;;;;;0.75;0.75;;;7.20;69.60;;;;;;4976517;28;20398;-70
2023/12/07 05:51:02;;;;;;;0.63;0.63;;;7.20;69.60;;;;;;4993671;28;20030;-70
2023/12/07 05:53:27;;;;;;;0.50;0.50;;;7.30;69.70;;;;;;4994291;28;20029;-70
2023/12/07 05:55:54;;;;;;;2.60;1.55;;;7.30;69.60;;;;;;4993679;28;20113;-71
2023/12/07 05:58:19;;;;;;;0.65;0.65;;;7.30;69.70;;;;;;5007352;28;20125;-73
2023/12/07 06:00:46;;;;;;;1.10;1.10;;;7.30;69.60;;;;;;5012875;28;20026;-73
2023/12/07 06:03:15;;;;;;;0.80;0.80;;;7.30;69.50;;;;;;5012923;28;20041;-73
2023/12/07 06:05:41;;;;;;;0.60;0.60;;;7.30;69.60;;;;;;5003203;28;20030;-70
2023/12/07 06:08:06;;;;;;;0.50;0.50;;;7.30;69.50;;;;;;4993829;28;20066;-70
2023/12/07 06:10:32;;;;;;;0.60;0.60;;;7.40;69.50;;;;;;4975876;28;20121;-71
2023/12/07 06:13:00;;;;;;;1.20;1.10;;;7.40;69.50;;;;;;4993596;28;20035;-70
2023/12/07 06:15:26;;;;;;;0.55;0.55;;;7.40;69.30;;;;;;4993306;28;20397;-70
2023/12/07 06:17:51;;;;;;;3.72;2.55;;;7.30;69.40;;;;;;4993239;28;20134;-71
2023/12/07 06:20:17;;;;;;;1.20;1.15;;;7.30;69.30;;;;;;4993176;28;20121;-69
2023/12/07 06:22:43;;;;;;;2.13;1.98;;;7.40;69.30;;;;;;4993304;28;20038;-70
2023/12/07 06:25:08;;;;;;;2.40;1.30;;;7.30;69.40;;;;;;4993064;28;20038;-70
2023/12/07 06:27:35;;;;;;;0.68;0.68;;;7.40;69.60;;;;;;4993421;28;20121;-71
2023/12/07 06:30:01;;;;;;;0.80;0.80;;;7.40;69.50;;;;;;4993242;28;20390;-70
2023/12/07 06:32:27;;;;;;;0.88;0.88;;;7.40;69.50;;;;;;4993078;28;20037;-70
2023/12/07 06:34:52;;;;;;;2.35;2.15;;;7.40;69.40;;;;;;4992979;28;20030;-70
2023/12/07 06:37:20;;;;;;;0.80;0.80;;;7.40;69.60;;;;;;4992883;28;20089;-70
2023/12/07 06:39:45;;;;;;;0.73;0.73;;;7.40;69.60;;;;;;4992752;28;20029;-70
2023/12/07 06:42:11;;;;;;;0.70;0.70;;;7.40;69.60;;;;;;4992788;28;20034;-70
2023/12/07 06:44:37;;;;;;;1.33;1.25;;;7.40;69.60;;;;;;4992980;28;20074;-69
2023/12/07 06:47:04;;;;;;;0.50;0.50;;;7.50;69.60;;;;;;4992901;28;20034;-70
2023/12/07 06:49:30;;;;;;;10.23;1.95;;;7.40;69.50;;;;;;4975117;28;20560;-70
2023/12/07 06:51:56;;;;;;;1.02;1.02;;;7.40;69.60;;;;;;4992590;28;20030;-70
2023/12/07 06:54:24;;;;;;;2.75;2.55;;;7.50;69.60;;;;;;4992538;28;20026;-70
2023/12/07 06:56:50;;;;;;;1.38;1.30;;;7.50;69.60;;;;;;4992427;28;20116;-70
2023/12/07 06:59:15;;;;;;;2.03;1.90;;;7.50;69.40;;;;;;4992167;28;20493;-70
2023/12/07 07:01:42;;;;;;;0.57;0.57;;;7.50;69.50;;;;;;4992390;28;20026;-70
2023/12/07 07:04:08;;;;;;;0.60;0.60;;;7.50;69.80;;;;;;4992544;28;20045;-70
2023/12/07 07:06:34;;;;;;;1.30;1.20;;;7.50;69.90;;;;;;4992315;28;20026;-70
2023/12/07 07:08:59;;;;;;;4.47;2.53;;;7.50;69.80;;;;;;5006768;28;20025;-73
2023/12/07 07:11:25;;;;;;;1.73;1.63;;;7.60;69.60;;;;;;4998790;28;20122;-73
2023/12/07 07:13:51;;;;;;;1.58;1.48;;;7.60;69.40;;;;;;5000108;28;20030;-73
2023/12/07 07:16:16;;;;;;;0.77;0.77;;;7.50;69.70;;;;;;5005963;28;20137;-73
2023/12/07 07:18:41;;;;;;;1.27;1.20;;;7.60;69.60;;;;;;4983974;28;20161;-73
2023/12/07 07:21:07;;;;;;;1.33;1.25;;;7.60;69.60;;;;;;5004079;28;20034;-73
2023/12/07 07:23:34;;;;;;;2.88;2.67;;;7.60;69.70;;;;;;4991468;28;20054;-73
2023/12/07 07:26:00;;;;;;;2.45;1.38;;;7.60;69.80;;;;;;5007588;28;20060;-73
2023/12/07 07:28:26;;;;;;;4.07;2.28;;;7.60;69.70;;;;;;5007621;28;20034;-73
2023/12/07 07:30:53;;;;;;;1.95;1.67;;;7.60;69.70;;;;;;5008932;28;20058;-73
2023/12/07 07:33:18;;;;;;;2.17;1.98;;;7.60;69.60;;;;;;5010212;28;20034;-73
2023/12/07 07:35:44;;;;;;;5.78;1.85;;;7.60;69.80;;;;;;4990171;28;20006;-73
2023/12/07 07:38:09;;;;;;;0.73;0.73;;;7.60;69.90;;;;;;5008785;28;20035;-73
2023/12/07 07:40:35;;;;;;;2.30;2.15;;;7.70;69.80;;;;;;4990193;28;20022;-73
2023/12/07 07:43:01;;;;;;;0.50;0.50;;;7.70;69.90;;;;;;5006982;28;20044;-73
2023/12/07 07:45:26;;;;;;;1.20;1.17;;;7.70;69.80;;;;;;5007520;28;20034;-73
2023/12/07 07:47:52;;;;;;;1.30;1.27;;;7.70;69.80;;;;;;5008566;28;20058;-73
2023/12/07 07:50:17;;;;;;;0.90;0.90;;;7.70;70.20;;;;;;5004168;28;20113;-73
2023/12/07 07:52:43;;;;;;;1.52;1.23;;;7.80;70.10;;;;;;5007095;28;20034;-73
2023/12/07 07:55:10;;;;;;;2.17;1.95;;;7.80;70.00;;;;;;5008432;28;20023;-73
2023/12/07 07:57:35;;;;;;;1.08;1.08;;;7.80;70.10;;;;;;5009453;28;20046;-73
2023/12/07 08:00:01;;;;;;;3.35;2.30;;;7.80;70.10;;;;;;5003974;28;20040;-73
2023/12/07 08:02:27;;;;;;;1.00;1.00;;;7.80;70.10;;;;;;5003921;28;20039;-73
2023/12/07 08:04:52;;;;;;;0.88;0.88;;;7.80;70.30;;;;;;5005414;28;20022;-73
2023/12/07 08:07:18;;;;;;;1.15;1.13;;;7.90;70.20;;;;;;4989180;28;20065;-73
2023/12/07 08:09:44;;;;;;;0.43;0.43;;;7.90;70.30;;;;;;5006715;28;20018;-73
2023/12/07 08:12:09;;;;;;;1.42;1.33;;;7.90;70.10;;;;;;5007025;28;20030;-73
2023/12/07 08:14:35;;;;;;;0.40;0.40;;;8.00;70.20;;;;;;5004837;28;20030;-73
2023/12/07 08:17:01;;;;;;;0.77;0.77;;;8.00;70.10;;;;;;5006007;28;20022;-71
2023/12/07 08:19:27;;;;;;;0.85;0.85;;;8.10;70.30;;;;;;4991022;28;20045;-70
2023/12/07 08:21:52;;;;;;;4.15;2.22;;;8.10;70.10;;;;;;4990800;28;20077;-71
2023/12/07 08:24:18;;;;;;;0.60;0.60;;;8.10;70.10;;;;;;4991477;28;20034;-71
2023/12/07 08:26:43;;;;;;;4.90;1.60;;;8.10;70.30;;;;;;4987952;28;20022;-70
2023/12/07 08:29:09;;;;;;;2.05;1.95;;;8.20;70.10;;;;;;4990697;28;20493;-70
2023/12/07 08:31:34;;;;;;;0.60;0.60;;;8.20;70.00;;;;;;4990505;28;20429;-70
2023/12/07 08:34:00;;;;;;;2.55;2.35;;;8.20;70.10;;;;;;4991755;28;20053;-70
2023/12/07 08:36:26;;;;;;;4.03;3.63;;;8.20;70.00;;;;;;4990735;28;20431;-70
2023/12/07 08:38:52;;;;;;;2.35;2.08;;;8.20;69.90;;;;;;4994467;28;20038;-71
2023/12/07 08:41:18;;;;;;;2.38;2.17;;;8.20;70.30;;;;;;4994056;28;20492;-71
2023/12/07 08:43:43;;;;;;;1.55;1.45;;;8.20;70.30;;;;;;4995250;28;20038;-71
2023/12/07 08:46:09;;;;;;;0.70;0.70;;;8.30;70.50;;;;;;4994617;28;20375;-71
2023/12/07 08:48:37;;;;;;;0.70;0.70;;;8.30;70.30;;;;;;4995167;28;20038;-71
2023/12/07 08:51:03;;;;;;;2.22;1.83;;;8.40;70.50;;;;;;4994724;28;20034;-69
2023/12/07 08:53:28;;;;;;;0.63;0.63;;;8.40;70.00;;;;;;4995032;28;20489;-69
2023/12/07 08:55:54;;;;;;;1.65;1.55;;;8.40;70.00;;;;;;4994660;28;20504;-69
2023/12/07 08:58:20;;;;;;;0.98;0.93;;;8.40;69.90;;;;;;4994548;28;20034;-70
2023/12/07 09:00:46;;;;;;;3.88;2.20;;;8.50;69.90;;;;;;4994429;28;20023;-69
2023/12/07 09:03:11;;;;;;;1.70;1.02;;;8.40;70.00;;;;;;4994776;28;20459;-71
2023/12/07 09:05:37;;;;;;;6.43;1.98;;;8.50;70.10;;;;;;4994646;28;20027;-71
2023/12/07 09:08:03;;;;;;;1.40;1.33;;;8.50;69.80;;;;;;4994951;28;20066;-69
2023/12/07 09:10:28;;;;;;;2.88;2.65;;;8.50;70.20;;;;;;4994348;28;20088;-69
2023/12/07 09:12:54;;;;;;;0.80;0.80;;;8.50;70.50;;;;;;4994314;28;20030;-69
2023/12/07 09:15:21;;;;;;;6.75;2.50;;;8.60;70.80;;;;;;4994157;28;20034;-69
2023/12/07 09:17:48;;;;;;;1.80;1.70;;;8.70;70.60;;;;;;4994485;28;20109;-69
2023/12/07 09:20:14;;;;;;;1.10;1.10;;;8.70;70.60;;;;;;4976669;28;20026;-69
2023/12/07 09:22:45;;;;;;;1.55;1.45;;;8.70;70.80;;;;;;4994438;28;20038;-70
2023/12/07 09:25:12;;;;;;;1.88;1.77;;;8.80;70.50;;;;;;4992359;28;20038;-70
2023/12/07 09:27:38;;;;;;;0.70;0.70;;;8.80;70.40;;;;;;4994680;28;20039;-70
2023/12/07 09:30:06;;;;;;;2.05;1.88;;;8.90;70.80;;;;;;4994248;28;20023;-69
2023/12/07 09:32:32;;;;;;;3.83;3.42;;;8.90;70.60;;;;;;4992824;28;20057;-70
2023/12/07 09:34:57;;;;;;;1.75;1.65;;;8.90;70.10;;;;;;4976327;28;20060;-69
2023/12/07 09:37:23;;;;;;;3.00;1.83;;;8.90;69.90;;;;;;4976397;28;20031;-69
2023/12/07 09:39:49;;;;;;;1.35;1.25;;;8.90;70.20;;;;;;4992539;28;20022;-69
2023/12/07 09:42:14;;;;;;;2.15;1.95;;;8.90;70.00;;;;;;4993738;28;20041;-69
2023/12/07 09:44:40;;;;;;;1.38;1.33;;;8.90;69.60;;;;;;4994121;28;20398;-69
2023/12/07 09:47:06;;;;;;;2.88;2.65;;;8.90;70.10;;;;;;4992126;28;20039;-69
2023/12/07 09:49:31;;;;;;;2.92;2.38;;;9.00;70.30;;;;;;4992343;28;20032;-69
2023/12/07 09:51:59;;;;;;;0.95;0.95;;;9.00;70.00;;;;;;4993654;28;20030;-70
2023/12/07 09:54:26;;;;;;;1.15;1.15;;;9.00;70.10;;;;;;5001264;28;20030;-72
2023/12/07 09:56:54;;;;;;;2.28;2.08;;;9.10;69.80;;;;;;5010651;28;20057;-72
2023/12/07 09:59:20;;;;;;;3.00;2.22;;;9.00;69.90;;;;;;5012382;28;20033;-72
2023/12/07 10:01:45;;;;;;;0.68;0.68;;;9.10;70.20;;;;;;5011887;28;20094;-72
2023/12/07 10:04:23;;;;;;;2.72;1.27;;;9.20;70.60;;;;;;5013870;28;20049;-72
2023/12/07 10:06:49;;;;;;;1.27;1.17;;;9.30;70.90;;;;;;5013285;28;20023;-72
2023/12/07 10:09:15;;;;;;;2.00;1.85;;;9.30;71.20;;;;;;4994322;28;20493;-69
2023/12/07 10:11:40;;;;;;;1.17;1.10;;;9.40;71.50;;;;;;4975039;28;20291;-69
2023/12/07 10:14:09;;;;;;;1.42;1.33;;;9.60;71.50;;;;;;4993692;28;20042;-69
2023/12/07 10:16:35;;;;;;;2.17;1.60;;;9.70;70.80;;;;;;4993156;28;20033;-69
2023/12/07 10:19:21;;;;;;;0.60;0.60;;;9.70;70.60;;;;;;4992739;28;20026;-69
2023/12/07 10:21:53;;;;;;;0.90;0.90;;;9.80;71.00;;;;;;4992538;28;20022;-70
2023/12/07 10:24:20;;;;;;;0.95;0.95;;;9.80;71.00;;;;;;4993473;28;20049;-70
2023/12/07 10:26:47;;;;;;;1.42;1.33;;;9.90;70.80;;;;;;4993008;28;20077;-70
2023/12/07 10:29:12;;;;;;;1.40;0.65;;;10.00;70.80;;;;;;4991578;28;20038;-70
2023/12/07 10:31:38;;;;;;;1.27;1.13;;;10.00;70.50;;;;;;4974712;28;20026;-71
2023/12/07 10:34:05;;;;;;;3.72;1.25;;;10.10;70.80;;;;;;4993299;28;20466;-69
2023/12/07 10:36:30;;;;;;;1.85;1.58;;;10.20;70.70;;;;;;4992289;28;20041;-69
2023/12/07 10:38:56;;;;;;;1.45;1.35;;;10.30;71.20;;;;;;4993366;28;20050;-69
2023/12/07 10:41:25;;;;;;;1.80;1.70;;;10.50;71.10;;;;;;4992984;28;20049;-70
2023/12/07 10:44:00;;;;;;;1.88;1.77;;;10.60;70.60;;;;;;4992544;28;20034;-70
2023/12/07 10:46:27;;;;;;;1.70;1.60;;;10.60;70.90;;;;;;4992874;28;20459;-70
2023/12/07 10:49:02;;;;;;;1.98;1.50;;;10.70;71.40;;;;;;4991725;28;20462;-71
2023/12/07 10:51:45;;;;;;;1.80;1.13;;;10.90;71.20;;;;;;4991909;28;20490;-70
2023/12/07 10:54:15;;;;;;;15.63;1.80;;;11.10;71.30;;;;;;4992581;28;20053;-70
2023/12/07 10:56:45;;;;;;;0.70;0.70;;;11.20;71.40;;;;;;4990522;28;20537;-70
2023/12/07 10:59:12;;;;;;;1.35;1.25;;;11.40;71.40;;;;;;4992058;28;20058;-69
2023/12/07 11:01:42;;;;;;;1.15;1.05;;;11.60;71.20;;;;;;4991223;28;20084;-69
2023/12/07 11:04:11;;;;;;;1.35;1.25;;;11.80;72.10;;;;;;4992209;28;20077;-70
2023/12/07 11:06:38;;;;;;;0.60;0.60;;;12.30;71.90;;;;;;4991392;28;20092;-69
2023/12/07 11:09:09;;;;;;;1.35;1.27;;;12.60;72.10;;;;;;4989339;28;20030;-70
2023/12/07 11:11:37;;;;;;;1.70;1.60;;;13.00;72.20;;;;;;4992732;28;20133;-69
2023/12/07 11:14:06;;;;;;;1.05;1.05;;;13.30;71.90;;;;;;4992307;28;20470;-69
2023/12/07 11:16:36;;;;;;;1.02;1.02;;;13.80;72.70;;;;;;4990417;28;20038;-70
2023/12/07 11:19:02;;;;;;;1.58;1.48;;;14.20;72.20;;;;;;4992454;28;20047;-70
2023/12/07 11:21:28;;;;;;;2.60;2.05;;;14.40;70.70;;;;;;4992189;28;20066;-70
2023/12/07 11:23:54;;;;;;;0.45;0.45;;;14.60;70.00;;;;;;4989912;28;20079;-70
2023/12/07 11:26:24;;;;;;;1.00;1.00;;;14.70;69.60;;;;;;4991761;28;20161;-70
2023/12/07 11:28:49;;;;;;;2.47;1.55;;;14.70;68.30;;;;;;4991414;28;20049;-71
2023/12/07 11:31:16;;;;;;;1.30;1.20;;;14.60;67.70;;;;;;4991260;28;20034;-70
2023/12/07 11:33:42;;;;;;;0.70;0.70;;;14.60;67.70;;;;;;4992241;28;20470;-70
2023/12/07 11:36:09;;;;;;;1.42;1.33;;;14.50;66.90;;;;;;4990652;28;20504;-70
2023/12/07 11:39:15;;;;;;;1.10;1.05;;;14.40;65.90;;;;;;4991624;28;20105;-70
2023/12/07 11:41:45;;;;;;;1.00;1.00;;;14.20;65.60;;;;;;4990039;28;20054;-70
2023/12/07 11:44:11;;;;;;;0.70;0.70;;;13.90;65.80;;;;;;4991802;28;20034;-69
2023/12/07 11:46:40;;;;;;;1.20;1.15;;;13.80;65.30;;;;;;4990845;28;20027;-70
2023/12/07 11:49:10;;;;;;;1.65;1.20;;;13.60;65.80;;;;;;4991803;28;20041;-69
2023/12/07 11:51:36;;;;;;;2.08;1.85;;;13.30;64.60;;;;;;4973398;28;20030;-71
2023/12/07 11:54:01;;;;;;;0.52;0.52;;;12.90;65.10;;;;;;4969523;28;20399;-70
2023/12/07 11:56:27;;;;;;;1.70;1.60;;;12.60;66.10;;;;;;4972182;28;20571;-69
2023/12/07 11:58:53;;;;;;;1.05;1.05;;;12.50;67.00;;;;;;4972027;28;20554;-70
2023/12/07 12:01:18;;;;;;;0.68;0.68;;;12.30;67.50;;;;;;4988607;28;20566;-69
2023/12/07 12:03:44;;;;;;;1.85;0.90;;;12.10;67.50;;;;;;4991811;28;20034;-69
2023/12/07 12:06:11;;;;;;;0.85;0.85;;;12.00;67.60;;;;;;4990927;28;20034;-69
2023/12/07 12:08:38;;;;;;;3.45;1.98;;;11.80;67.30;;;;;;4974029;28;20038;-70
2023/12/07 12:11:04;;;;;;;0.65;0.65;;;11.70;67.00;;;;;;4991334;28;20045;-71
2023/12/07 12:13:33;;;;;;;2.92;1.77;;;11.50;67.50;;;;;;4994965;28;20038;-70
2023/12/07 12:15:59;;;;;;;0.85;0.85;;;11.40;67.40;;;;;;4995657;28;20466;-69
2023/12/07 12:18:26;;;;;;;0.98;0.98;;;11.40;67.70;;;;;;4994641;28;20470;-70
2023/12/07 12:20:52;;;;;;;1.27;1.17;;;11.30;68.40;;;;;;4995270;28;20475;-70
2023/12/07 12:23:18;;;;;;;0.80;0.80;;;11.30;68.10;;;;;;4994697;28;20453;-70
2023/12/07 12:25:45;;;;;;;1.63;1.52;;;11.20;68.40;;;;;;4995241;28;20061;-70
2023/12/07 12:28:11;;;;;;;1.48;1.38;;;11.10;67.30;;;;;;4995479;28;20066;-70
2023/12/07 12:30:37;;;;;;;1.73;1.63;;;10.90;67.20;;;;;;4993717;28;20117;-70
2023/12/07 12:33:03;;;;;;;0.50;0.50;;;10.80;67.40;;;;;;4994600;28;20129;-70
2023/12/07 12:35:29;;;;;;;0.68;0.68;;;10.70;67.10;;;;;;4995062;28;20022;-69
2023/12/07 12:37:57;;;;;;;0.75;0.70;;;10.50;67.00;;;;;;4993942;28;20095;-72
2023/12/07 12:40:26;;;;;;;0.80;0.80;;;10.40;67.40;;;;;;4972368;28;20117;-70
2023/12/07 12:42:52;;;;;;;0.80;0.80;;;10.40;67.80;;;;;;4975612;28;20471;-71
2023/12/07 12:45:19;;;;;;;1.30;1.20;;;10.40;68.00;;;;;;4958819;28;20030;-70
2023/12/07 12:47:46;;;;;;;0.60;0.60;;;10.30;68.20;;;;;;4994370;28;20409;-70
2023/12/07 12:50:31;;;;;;;1.48;0.95;;;10.30;68.20;;;;;;4994542;28;20551;-71